Terminal Aerodrome Forecast
Issued by NWS

Home | Current Version | Previous Version | Text Only | Print | Product List | Glossary On
Versions: 1 2 3 4 5 6 7 8 9 10 11 12 13 14 15 16 17 18 19 20 21
000
FTUS42 KMHX 191100
TAFOAJ
TAF
KOAJ 191132Z 1912/2012 04015G25KT 6SM RA OVC007
     FM191500 04015G25KT 6SM RA SCT007 OVC015
     FM200000 05015G20KT P6SM -RA OVC007
      AMD LTD TO CLD VIS AND WIND=

USA.gov is the U.S. government's official web portal to all federal, state and local government web resources and services.